createdAt,value
2022-10-14T00:01:16.663Z,47.31
2022-10-14T00:06:07.967Z,47.07
2022-10-14T00:13:26.325Z,47.25
2022-10-14T00:15:52.887Z,47.13
2022-10-14T00:18:19.788Z,46.83
2022-10-14T00:20:54.608Z,47.14
2022-10-14T00:23:21.195Z,46.92
2022-10-14T00:28:21.365Z,46.99
2022-10-14T00:30:59.433Z,46.92
2022-10-14T00:33:27.791Z,46.95
2022-10-14T00:35:57.269Z,46.91
2022-10-14T00:38:29.469Z,47.05
2022-10-14T00:43:10.276Z,46.72
2022-10-14T00:45:37.232Z,46.85
2022-10-14T00:50:32.971Z,46.70
2022-10-14T00:53:00.213Z,46.75
2022-10-14T00:55:28.387Z,46.68
2022-10-14T00:57:55.491Z,46.86
2022-10-14T01:00:22.746Z,46.75
2022-10-14T01:02:51.475Z,46.55
2022-10-14T01:07:54.470Z,46.42
2022-10-14T01:10:39.317Z,46.51
2022-10-14T01:13:18.097Z,46.84
2022-10-14T01:15:52.197Z,46.55
2022-10-14T01:18:41.344Z,46.79
2022-10-14T01:21:37.556Z,46.30
2022-10-14T01:24:23.107Z,46.64
2022-10-14T01:26:58.994Z,46.53
2022-10-14T01:29:37.641Z,46.24
2022-10-14T01:32:12.876Z,46.47
2022-10-14T01:35:03.662Z,46.41
2022-10-14T01:37:33.473Z,46.37
2022-10-14T01:40:07.038Z,46.48
2022-10-14T01:42:38.387Z,46.27
2022-10-14T01:45:17.849Z,46.42
2022-10-14T01:49:44.192Z,46.33
2022-10-14T01:52:20.020Z,46.23
2022-10-14T01:54:49.952Z,46.27
2022-10-14T01:57:24.313Z,46.27
2022-10-14T01:59:53.275Z,46.08
2022-10-14T02:02:20.176Z,46.06
2022-10-14T02:04:46.996Z,46.13
2022-10-14T02:07:31.419Z,45.97
2022-10-14T02:12:03.176Z,45.92
2022-10-14T02:14:35.773Z,45.84
2022-10-14T02:19:20.645Z,45.84
2022-10-14T02:21:56.203Z,46.08
2022-10-14T02:26:40.829Z,45.99
2022-10-14T02:29:07.846Z,45.85
2022-10-14T02:31:38.570Z,45.97
2022-10-14T02:34:11.503Z,45.78
2022-10-14T02:36:39.878Z,45.96
2022-10-14T02:41:34.247Z,45.86
2022-10-14T02:44:01.242Z,45.88
2022-10-14T02:48:51.489Z,45.70
2022-10-14T02:51:19.244Z,45.86
2022-10-14T02:53:45.782Z,45.70
2022-10-14T02:56:14.058Z,45.80
2022-10-14T02:58:40.617Z,45.68
2022-10-14T03:01:07.407Z,45.91
2022-10-14T03:03:35.103Z,45.71
2022-10-14T03:06:02.526Z,45.57
2022-10-14T03:08:30.580Z,45.59
2022-10-14T03:10:58.958Z,45.57
2022-10-14T03:13:26.528Z,45.68
2022-10-14T03:15:54.315Z,45.54
2022-10-14T03:18:21.902Z,45.59
2022-10-14T03:20:52.547Z,45.47
2022-10-14T03:23:23.965Z,45.58
2022-10-14T03:25:53.336Z,45.52
2022-10-14T03:28:31.001Z,45.25
2022-10-14T03:31:08.315Z,45.47
2022-10-14T03:34:03.949Z,45.34
2022-10-14T03:36:31.647Z,45.37
2022-10-14T03:38:58.294Z,45.36
2022-10-14T03:41:34.173Z,45.41
2022-10-14T03:44:01.484Z,45.28
2022-10-14T03:48:05.216Z,45.13
2022-10-14T03:50:31.958Z,45.10
2022-10-14T03:52:59.204Z,45.35
2022-10-14T03:55:34.990Z,45.04
2022-10-14T03:58:02.979Z,45.25
2022-10-14T04:00:30.713Z,45.05
2022-10-14T04:03:15.413Z,45.21
2022-10-14T04:05:43.448Z,44.89
2022-10-14T04:10:13.787Z,45.01
2022-10-14T04:12:46.087Z,45.23
2022-10-14T04:17:40.548Z,45.60
2022-10-14T04:20:13.265Z,45.12
2022-10-14T04:22:41.432Z,44.97
2022-10-14T04:25:08.770Z,45.16
2022-10-14T04:27:35.721Z,45.17
2022-10-14T04:30:07.129Z,44.97
2022-10-14T04:32:46.255Z,44.94
2022-10-14T04:35:16.212Z,44.82
2022-10-14T04:39:53.147Z,44.81
2022-10-14T04:42:20.656Z,45.04
2022-10-14T04:47:17.660Z,44.95
2022-10-14T04:49:51.296Z,44.90
2022-10-14T04:52:21.016Z,44.85
2022-10-14T04:55:03.516Z,45.12
2022-10-14T04:57:37.347Z,44.97
2022-10-14T05:00:04.852Z,44.75
2022-10-14T05:02:44.647Z,44.84
2022-10-14T05:05:11.338Z,44.67
2022-10-14T05:07:41.389Z,44.65
2022-10-14T05:10:43.213Z,44.63
2022-10-14T05:13:17.811Z,44.72
2022-10-14T05:16:52.915Z,44.64
2022-10-14T05:19:26.358Z,44.82
2022-10-14T05:21:53.976Z,44.56
2022-10-14T05:24:26.469Z,44.56
2022-10-14T05:26:53.808Z,44.76
2022-10-14T05:29:20.316Z,44.65
2022-10-14T05:31:49.381Z,44.61
2022-10-14T05:34:27.439Z,44.75
2022-10-14T05:36:56.272Z,44.54
2022-10-14T05:39:23.012Z,44.60
2022-10-14T05:41:50.279Z,44.35
2022-10-14T05:46:26.080Z,44.74
2022-10-14T05:48:56.811Z,44.55
2022-10-14T05:53:49.809Z,44.75
2022-10-14T05:56:18.779Z,44.66
2022-10-14T05:58:45.313Z,44.54
2022-10-14T06:01:12.288Z,44.73
2022-10-14T06:03:41.547Z,44.55
2022-10-14T06:06:14.817Z,44.57
2022-10-14T06:08:42.177Z,44.53
2022-10-14T06:11:09.092Z,44.73
2022-10-14T06:13:36.264Z,44.65
2022-10-14T06:16:08.764Z,44.55
2022-10-14T06:18:36.505Z,44.77
2022-10-14T06:23:26.535Z,44.50
2022-10-14T06:25:53.505Z,44.45
2022-10-14T06:30:54.543Z,44.50
2022-10-14T06:33:21.928Z,44.49
2022-10-14T06:35:49.316Z,44.44
2022-10-14T06:38:16.125Z,44.53
2022-10-14T06:40:42.636Z,44.24
2022-10-14T06:43:09.203Z,44.72
2022-10-14T06:45:35.776Z,44.34
2022-10-14T06:48:04.345Z,44.58
2022-10-14T06:50:30.855Z,44.60
2022-10-14T06:52:57.561Z,44.30
2022-10-14T06:55:24.070Z,44.16
2022-10-14T06:57:50.646Z,44.17
2022-10-14T07:00:17.765Z,44.42
2022-10-14T07:02:44.985Z,44.29
2022-10-14T07:05:11.931Z,44.40
2022-10-14T07:07:38.720Z,44.28
2022-10-14T07:10:05.575Z,44.38
2022-10-14T07:12:32.239Z,44.28
2022-10-14T07:15:16.484Z,44.03
2022-10-14T07:17:43.042Z,43.88
2022-10-14T07:20:10.168Z,44.25
2022-10-14T07:22:38.914Z,43.89
2022-10-14T07:25:06.523Z,43.89
2022-10-14T07:27:33.259Z,43.83
2022-10-14T07:30:01.708Z,44.07
2022-10-14T07:32:28.375Z,44.03
2022-10-14T07:34:54.860Z,43.86
2022-10-14T07:37:22.142Z,43.66
2022-10-14T07:39:49.553Z,43.89
2022-10-14T07:42:16.432Z,43.67
2022-10-14T07:44:43.060Z,43.59
2022-10-14T07:47:09.738Z,43.58
2022-10-14T07:49:36.370Z,43.56
2022-10-14T07:52:03.040Z,43.78
2022-10-14T07:54:31.122Z,43.78
2022-10-14T07:57:00.708Z,43.34
2022-10-14T07:59:27.330Z,43.64
2022-10-14T08:01:54.254Z,43.67
2022-10-14T08:04:20.892Z,43.27
2022-10-14T08:06:48.957Z,43.43
2022-10-14T08:09:16.512Z,43.41
2022-10-14T08:11:44.192Z,43.23
2022-10-14T08:14:11.300Z,43.61
2022-10-14T08:16:39.326Z,43.46
2022-10-14T08:19:13.833Z,43.28
2022-10-14T08:21:49.490Z,43.21
2022-10-14T08:24:16.140Z,43.60
2022-10-14T08:26:58.027Z,43.36
2022-10-14T08:29:25.546Z,43.22
2022-10-14T08:31:54.052Z,43.24
2022-10-14T08:34:21.736Z,43.31
2022-10-14T08:36:48.840Z,43.33
2022-10-14T08:39:18.204Z,43.13
2022-10-14T08:42:16.257Z,43.44
2022-10-14T08:44:49.766Z,43.40
2022-10-14T08:47:23.707Z,43.34
2022-10-14T08:50:20.836Z,43.35
2022-10-14T08:53:00.441Z,43.29
2022-10-14T08:55:33.832Z,43.35
2022-10-14T08:58:10.540Z,43.39
2022-10-14T09:00:41.304Z,43.15
2022-10-14T09:03:33.340Z,43.32
2022-10-14T09:06:02.161Z,43.31
2022-10-14T09:08:38.011Z,43.25
2022-10-14T09:11:10.095Z,43.42
2022-10-14T09:13:41.277Z,43.01
2022-10-14T09:16:36.172Z,43.38
2022-10-14T09:19:28.835Z,43.15
2022-10-14T09:21:56.108Z,43.18
2022-10-14T09:24:35.450Z,43.35
2022-10-14T09:27:14.321Z,43.13
2022-10-14T09:29:43.735Z,42.92
2022-10-14T09:32:18.911Z,43.03
2022-10-14T09:34:51.626Z,42.94
2022-10-14T09:37:27.009Z,42.91
2022-10-14T09:39:59.059Z,43.13
2022-10-14T09:42:56.765Z,42.90
2022-10-14T09:45:26.059Z,42.98
2022-10-14T09:47:57.296Z,42.96
2022-10-14T09:50:23.929Z,42.87
2022-10-14T09:52:59.565Z,42.88
2022-10-14T09:55:26.237Z,43.14
2022-10-14T09:58:17.017Z,43.23
2022-10-14T10:00:46.057Z,43.00
2022-10-14T10:03:33.510Z,42.66
2022-10-14T10:06:09.652Z,42.85
2022-10-14T10:08:54.104Z,43.13
2022-10-14T10:11:37.980Z,43.00
2022-10-14T10:14:20.984Z,42.96
2022-10-14T10:16:48.573Z,43.01
2022-10-14T10:19:36.368Z,42.60
2022-10-14T10:25:01.286Z,42.72
2022-10-14T10:27:33.713Z,42.94
2022-10-14T10:30:14.440Z,42.96
2022-10-14T10:35:17.806Z,42.74
2022-10-14T10:37:56.793Z,42.59
2022-10-14T10:40:30.160Z,42.55
2022-10-14T10:43:31.744Z,42.58
2022-10-14T10:46:19.971Z,42.75
2022-10-14T10:49:10.272Z,42.38
2022-10-14T10:51:54.368Z,42.75
2022-10-14T10:54:31.321Z,42.68
2022-10-14T10:57:45.984Z,42.80
2022-10-14T11:00:16.499Z,42.36
2022-10-14T11:03:11.108Z,42.50
2022-10-14T11:05:51.764Z,42.53
2022-10-14T11:09:11.372Z,42.52
2022-10-14T11:12:02.726Z,42.70
2022-10-14T11:14:38.312Z,42.30
2022-10-14T11:17:07.730Z,42.39
2022-10-14T11:20:02.801Z,42.35
2022-10-14T11:23:04.631Z,42.71
2022-10-14T11:25:49.831Z,42.55
2022-10-14T11:28:45.899Z,42.27
2022-10-14T11:31:36.429Z,42.56
2022-10-14T11:34:24.285Z,42.43
2022-10-14T11:37:17.361Z,42.46
2022-10-14T11:39:50.089Z,42.65
2022-10-14T11:42:35.432Z,42.52
2022-10-14T11:45:21.359Z,42.73
2022-10-14T11:48:08.117Z,42.66
2022-10-14T11:50:44.335Z,42.26
2022-10-14T11:53:20.392Z,42.39
2022-10-14T11:55:56.055Z,42.38
2022-10-14T11:58:27.007Z,42.41
2022-10-14T12:00:56.057Z,42.49
2022-10-14T12:04:02.856Z,42.28
2022-10-14T12:06:41.865Z,42.28
2022-10-14T12:09:27.494Z,42.43
2022-10-14T12:12:15.344Z,42.49
2022-10-14T12:14:52.361Z,42.57
2022-10-14T12:17:26.150Z,42.29
2022-10-14T12:22:27.856Z,42.39
2022-10-14T12:24:58.901Z,42.47
2022-10-14T12:27:28.453Z,42.44
2022-10-14T12:29:58.491Z,42.14
2022-10-14T12:32:26.872Z,42.45
2022-10-14T12:34:55.903Z,42.22
2022-10-14T12:37:35.212Z,42.44
2022-10-14T12:40:02.277Z,42.18
2022-10-14T12:42:30.636Z,42.19
2022-10-14T12:45:01.202Z,42.26
2022-10-14T12:47:35.179Z,42.39
2022-10-14T12:50:06.164Z,42.15
2022-10-14T12:52:38.567Z,42.11
2022-10-14T12:57:28.642Z,42.37
2022-10-14T12:59:59.457Z,42.31
2022-10-14T13:02:35.812Z,42.01
2022-10-14T13:05:07.198Z,42.22
2022-10-14T13:07:47.343Z,42.38
2022-10-14T13:10:43.461Z,42.52
2022-10-14T13:13:47.717Z,42.09
2022-10-14T13:16:26.168Z,42.20
2022-10-14T13:18:55.788Z,42.22
2022-10-14T13:21:42.539Z,42.08
2022-10-14T13:24:17.948Z,42.08
2022-10-14T13:27:15.020Z,42.36
2022-10-14T13:30:05.637Z,42.09
2022-10-14T13:32:42.307Z,42.12
2022-10-14T13:35:30.021Z,42.30
2022-10-14T13:38:18.882Z,42.29
2022-10-14T13:40:56.532Z,42.46
2022-10-14T13:43:28.635Z,42.05
2022-10-14T13:46:07.066Z,42.38
2022-10-14T13:48:39.210Z,41.99
2022-10-14T13:51:24.478Z,42.36
2022-10-14T13:54:19.841Z,42.05
2022-10-14T13:57:12.628Z,42.09
2022-10-14T14:00:11.642Z,42.33
2022-10-14T14:02:39.969Z,42.31
2022-10-14T14:05:13.897Z,42.17
2022-10-14T14:10:30.378Z,42.38
2022-10-14T14:12:58.253Z,42.52
2022-10-14T14:15:28.848Z,42.06
2022-10-14T14:17:55.719Z,42.33
2022-10-14T14:20:25.037Z,42.28
2022-10-14T14:22:53.614Z,42.19
2022-10-14T14:25:46.492Z,42.14
2022-10-14T14:28:18.671Z,42.30
2022-10-14T14:30:55.755Z,42.25
2022-10-14T14:33:32.083Z,42.09
2022-10-14T14:36:01.668Z,42.03
2022-10-14T14:38:34.593Z,42.29
2022-10-14T14:41:02.447Z,42.26
2022-10-14T14:43:31.721Z,42.39
2022-10-14T14:46:03.826Z,42.25
2022-10-14T14:48:34.446Z,42.22
2022-10-14T14:51:01.636Z,42.50
2022-10-14T14:54:02.164Z,42.17
2022-10-14T14:56:33.382Z,42.52
2022-10-14T14:59:16.224Z,42.37
2022-10-14T15:01:43.404Z,42.17
2022-10-14T15:04:18.929Z,42.57
2022-10-14T15:06:56.420Z,42.54
2022-10-14T15:09:35.798Z,42.28
2022-10-14T15:12:06.650Z,42.25
2022-10-14T15:14:45.956Z,42.44
2022-10-14T15:17:34.385Z,42.23
2022-10-14T15:20:31.098Z,42.53
2022-10-14T15:22:57.747Z,42.46
2022-10-14T15:25:31.087Z,42.44
2022-10-14T15:27:59.840Z,42.49
2022-10-14T15:31:05.714Z,42.29
2022-10-14T15:33:32.681Z,42.73
2022-10-14T15:36:01.806Z,42.35
2022-10-14T15:38:29.430Z,42.64
2022-10-14T15:40:56.285Z,42.76
2022-10-14T15:43:25.210Z,42.53
2022-10-14T15:46:14.455Z,42.79
2022-10-14T15:48:47.485Z,42.67
2022-10-14T15:51:17.925Z,43.11
2022-10-14T15:53:44.421Z,43.49
2022-10-14T15:56:11.241Z,43.50
2022-10-14T16:00:43.423Z,43.86
2022-10-14T16:03:10.436Z,44.17
2022-10-14T16:05:38.489Z,44.27
2022-10-14T16:08:14.015Z,44.15
2022-10-14T16:10:43.773Z,43.98
2022-10-14T16:13:12.487Z,44.30
2022-10-14T16:15:53.380Z,43.73
2022-10-14T16:18:22.376Z,43.79
2022-10-14T16:20:51.600Z,43.76
2022-10-14T16:23:28.175Z,44.06
2022-10-14T16:25:58.213Z,43.67
2022-10-14T16:28:24.719Z,43.99
2022-10-14T16:30:51.326Z,43.92
2022-10-14T16:33:19.623Z,43.87
2022-10-14T16:35:53.674Z,43.94
2022-10-14T16:38:20.513Z,43.67
2022-10-14T16:40:58.820Z,43.82
2022-10-14T16:43:26.278Z,43.87
2022-10-14T16:45:53.320Z,43.67
2022-10-14T16:48:20.073Z,43.77
2022-10-14T16:50:50.524Z,44.12
2022-10-14T16:53:36.289Z,43.97
2022-10-14T16:56:03.795Z,44.18
2022-10-14T16:58:30.640Z,44.08
2022-10-14T17:00:57.249Z,43.89
2022-10-14T17:03:23.732Z,44.05
2022-10-14T17:05:58.928Z,43.98
2022-10-14T17:08:25.499Z,43.93
2022-10-14T17:10:57.999Z,43.98
2022-10-14T17:14:37.280Z,44.33
2022-10-14T17:17:04.481Z,44.11
2022-10-14T17:19:31.191Z,44.36
2022-10-14T17:21:58.620Z,44.33
2022-10-14T17:24:25.963Z,44.33
2022-10-14T17:29:24.279Z,44.35
2022-10-14T17:31:58.000Z,44.21
2022-10-14T17:34:24.809Z,44.20
2022-10-14T17:36:53.259Z,44.31
2022-10-14T17:39:25.854Z,44.44
2022-10-14T17:41:56.314Z,44.37
2022-10-14T17:46:47.434Z,44.15
2022-10-14T17:51:39.231Z,44.19
2022-10-14T17:54:09.913Z,44.23
2022-10-14T17:56:37.400Z,44.38
2022-10-14T17:59:07.416Z,44.19
2022-10-14T18:02:02.046Z,44.31
2022-10-14T18:04:22.222Z,44.21
2022-10-14T18:06:48.799Z,44.22
2022-10-14T18:09:15.369Z,44.38
2022-10-14T18:14:30.161Z,44.23
2022-10-14T18:16:56.734Z,44.42
2022-10-14T18:19:23.282Z,44.43
2022-10-14T18:21:51.524Z,44.14
2022-10-14T18:24:20.902Z,44.30
2022-10-14T18:26:52.380Z,44.42
2022-10-14T18:29:18.982Z,44.42
2022-10-14T18:31:45.604Z,44.43
2022-10-14T18:34:12.317Z,44.10
2022-10-14T18:36:38.959Z,44.21
2022-10-14T18:39:09.074Z,44.31
2022-10-14T18:41:37.112Z,44.34
2022-10-14T18:44:05.127Z,44.19
2022-10-14T18:46:34.681Z,44.15
2022-10-14T18:49:02.865Z,44.06
2022-10-14T18:51:34.609Z,44.54
2022-10-14T18:54:05.274Z,44.44
2022-10-14T18:56:35.029Z,44.10
2022-10-14T18:59:07.069Z,44.39
2022-10-14T19:01:37.163Z,44.52
2022-10-14T19:04:05.962Z,44.28
2022-10-14T19:06:36.173Z,44.52
2022-10-14T19:09:04.302Z,44.55
2022-10-14T19:11:33.303Z,44.42
2022-10-14T19:14:03.607Z,44.17
2022-10-14T19:16:32.476Z,44.18
2022-10-14T19:19:07.823Z,44.32
2022-10-14T19:21:35.031Z,44.21
2022-10-14T19:24:02.494Z,44.12
2022-10-14T19:26:32.268Z,44.21
2022-10-14T19:29:04.289Z,44.32
2022-10-14T19:35:12.867Z,44.24
2022-10-14T19:37:42.082Z,44.19
2022-10-14T19:40:13.885Z,44.40
2022-10-14T19:42:40.545Z,44.28
2022-10-14T19:45:11.988Z,44.54
2022-10-14T19:47:38.920Z,44.38
2022-10-14T19:50:06.226Z,44.53
2022-10-14T19:52:32.778Z,44.46
2022-10-14T19:54:59.339Z,44.38
2022-10-14T19:57:28.074Z,44.24
2022-10-14T19:59:54.631Z,44.25
2022-10-14T20:02:21.385Z,44.20
2022-10-14T20:04:47.981Z,44.22
2022-10-14T20:07:14.971Z,44.58
2022-10-14T20:09:43.003Z,44.48
2022-10-14T20:14:30.370Z,44.30
2022-10-14T20:16:59.325Z,44.23
2022-10-14T20:19:25.840Z,44.46
2022-10-14T20:21:52.394Z,44.25
2022-10-14T20:24:27.765Z,44.58
2022-10-14T20:26:57.600Z,44.23
2022-10-14T20:29:24.322Z,44.56
2022-10-14T20:31:50.993Z,44.48
2022-10-14T20:34:17.608Z,44.59
2022-10-14T20:36:44.208Z,44.29
2022-10-14T20:39:17.485Z,44.41
2022-10-14T20:41:45.144Z,44.45
2022-10-14T20:44:11.702Z,44.40
2022-10-14T20:46:38.224Z,44.49
2022-10-14T20:49:04.825Z,44.45
2022-10-14T20:51:34.466Z,44.50
2022-10-14T20:54:04.189Z,44.47
2022-10-14T20:56:34.407Z,44.56
2022-10-14T20:59:04.236Z,44.64
2022-10-14T21:01:31.860Z,44.52
2022-10-14T21:04:02.069Z,44.44
2022-10-14T21:06:29.567Z,44.71
2022-10-14T21:08:57.146Z,44.44
2022-10-14T21:11:24.948Z,44.42
2022-10-14T21:14:00.549Z,44.60
2022-10-14T21:16:30.008Z,44.71
2022-10-14T21:18:59.376Z,44.33
2022-10-14T21:21:28.442Z,44.53
2022-10-14T21:23:55.615Z,44.28
2022-10-14T21:26:22.926Z,44.59
2022-10-14T21:28:49.718Z,44.59
2022-10-14T21:31:19.204Z,44.37
2022-10-14T21:33:47.646Z,44.62
2022-10-14T21:36:16.036Z,44.32
2022-10-14T21:38:42.796Z,44.32
2022-10-14T21:41:09.701Z,44.63
2022-10-14T21:43:38.294Z,44.61
2022-10-14T21:48:17.975Z,44.71
2022-10-14T21:50:44.548Z,44.29
2022-10-14T21:53:12.565Z,44.47
2022-10-14T21:55:41.941Z,44.31
2022-10-14T21:58:08.451Z,44.36
2022-10-14T22:00:35.181Z,44.59
2022-10-14T22:03:01.776Z,44.66
2022-10-14T22:05:28.534Z,44.35
2022-10-14T22:07:55.623Z,44.75
2022-10-14T22:10:40.959Z,44.33
2022-10-14T22:13:08.031Z,44.58
2022-10-14T22:15:35.602Z,44.65
2022-10-14T22:18:03.076Z,44.62
2022-10-14T22:20:29.653Z,44.68
2022-10-14T22:22:58.807Z,44.44
2022-10-14T22:25:26.036Z,44.48
2022-10-14T22:27:52.644Z,44.32
2022-10-14T22:30:19.285Z,44.53
2022-10-14T22:32:45.849Z,44.69
2022-10-14T22:35:12.372Z,44.39
2022-10-14T22:37:40.303Z,44.53
2022-10-14T22:40:07.421Z,44.62
2022-10-14T22:42:35.184Z,44.57
2022-10-14T22:45:03.865Z,44.31
2022-10-14T22:47:30.646Z,44.60
2022-10-14T22:49:57.128Z,44.68
2022-10-14T22:52:24.014Z,44.67
2022-10-14T22:54:50.793Z,44.68
2022-10-14T22:57:17.334Z,44.43
2022-10-14T23:02:14.008Z,44.41
2022-10-14T23:04:40.662Z,44.39
2022-10-14T23:07:08.991Z,44.26
2022-10-14T23:12:07.294Z,44.39
2022-10-14T23:14:33.853Z,44.45
2022-10-14T23:17:00.470Z,44.31
2022-10-14T23:19:26.953Z,44.39
2022-10-14T23:21:53.628Z,44.54
2022-10-14T23:24:20.180Z,44.66
2022-10-14T23:26:46.799Z,44.42
2022-10-14T23:29:13.373Z,44.47
2022-10-14T23:31:40.931Z,44.65
2022-10-14T23:34:11.655Z,44.64
2022-10-14T23:39:11.332Z,44.38
2022-10-14T23:41:38.505Z,44.38
2022-10-14T23:44:05.030Z,44.59
2022-10-14T23:46:31.618Z,44.84
2022-10-14T23:49:07.418Z,44.65
2022-10-14T23:51:40.960Z,44.93
2022-10-14T23:54:07.744Z,44.68
2022-10-14T23:58:47.631Z,45.67
